createdAt,value
2023-01-23T00:01:42.136Z,1.70
2023-01-23T00:04:14.502Z,1.78
2023-01-23T00:06:43.487Z,1.71
2023-01-23T00:09:13.591Z,1.73
2023-01-23T00:11:42.070Z,1.80
2023-01-23T00:14:12.042Z,1.28
2023-01-23T00:16:40.482Z,1.14
2023-01-23T00:19:10.384Z,1.78
2023-01-23T00:21:39.454Z,1.82
2023-01-23T00:24:11.876Z,1.63
2023-01-23T00:26:41.969Z,1.78
2023-01-23T00:29:10.973Z,1.68
2023-01-23T00:31:40.786Z,1.44
2023-01-23T00:34:14.790Z,1.75
2023-01-23T00:36:45.861Z,1.81
2023-01-23T00:39:18.753Z,1.87
2023-01-23T00:41:50.445Z,1.54
2023-01-23T00:44:19.392Z,1.71
2023-01-23T00:46:49.478Z,1.75
2023-01-23T00:49:19.718Z,1.77
2023-01-23T00:51:48.168Z,1.79
2023-01-23T00:54:16.702Z,1.73
2023-01-23T00:56:45.159Z,1.75
2023-01-23T00:59:15.053Z,1.75
2023-01-23T01:01:43.840Z,1.74
2023-01-23T01:04:12.329Z,1.67
2023-01-23T01:06:40.747Z,1.69
2023-01-23T01:09:09.168Z,1.68
2023-01-23T01:11:39.637Z,1.55
2023-01-23T01:14:08.308Z,1.24
2023-01-23T01:16:38.267Z,1.75
2023-01-23T01:19:06.705Z,1.74
2023-01-23T01:21:35.845Z,1.66
2023-01-23T01:24:04.509Z,1.36
2023-01-23T01:26:33.006Z,1.71
2023-01-23T01:29:01.548Z,1.72
2023-01-23T01:31:30.084Z,1.72
2023-01-23T01:34:00.002Z,1.67
2023-01-23T01:36:28.687Z,1.68
2023-01-23T01:38:57.952Z,1.73
2023-01-23T01:41:26.830Z,1.74
2023-01-23T01:43:57.150Z,1.79
2023-01-23T01:46:28.739Z,1.70
2023-01-23T01:49:08.478Z,1.76
2023-01-23T01:51:43.804Z,1.05
2023-01-23T01:54:23.725Z,1.65
2023-01-23T01:56:59.726Z,1.81
2023-01-23T01:59:33.159Z,1.80
2023-01-23T02:02:14.045Z,1.81
2023-01-23T02:04:49.282Z,1.90
2023-01-23T02:07:25.831Z,1.85
2023-01-23T02:09:56.626Z,1.77
2023-01-23T02:12:26.984Z,1.67
2023-01-23T02:14:55.966Z,1.63
2023-01-23T02:17:24.485Z,1.67
2023-01-23T02:20:08.637Z,1.75
2023-01-23T02:22:53.956Z,1.39
2023-01-23T02:25:37.039Z,1.66
2023-01-23T02:28:07.284Z,1.68
2023-01-23T02:30:41.121Z,1.53
2023-01-23T02:33:10.862Z,1.71
2023-01-23T02:35:40.221Z,1.62
2023-01-23T02:38:18.034Z,1.47
2023-01-23T02:40:46.553Z,1.71
2023-01-23T02:43:28.487Z,1.46
2023-01-23T02:46:03.665Z,1.67
2023-01-23T02:48:32.202Z,1.69
2023-01-23T02:51:03.358Z,1.43
2023-01-23T02:53:32.004Z,1.63
2023-01-23T02:56:00.776Z,1.60
2023-01-23T02:58:48.161Z,1.71
2023-01-23T03:01:16.714Z,1.71
2023-01-23T03:03:45.171Z,1.58
2023-01-23T03:06:13.754Z,1.70
2023-01-23T03:08:47.599Z,1.73
2023-01-23T03:11:18.883Z,1.72
2023-01-23T03:13:49.432Z,1.76
2023-01-23T03:16:17.885Z,1.66
2023-01-23T03:18:54.198Z,1.80
2023-01-23T03:21:23.387Z,1.86
2023-01-23T03:23:52.043Z,1.88
2023-01-23T03:26:20.474Z,1.93
2023-01-23T03:29:08.625Z,1.85
2023-01-23T03:31:37.707Z,2.08
2023-01-23T03:34:06.455Z,2.10
2023-01-23T03:36:39.097Z,1.73
2023-01-23T03:39:26.624Z,1.99
2023-01-23T03:41:56.089Z,1.82
2023-01-23T03:44:28.450Z,1.81
2023-01-23T03:46:56.927Z,1.69
2023-01-23T03:49:26.319Z,1.84
2023-01-23T03:52:15.069Z,1.80
2023-01-23T03:54:44.674Z,1.87
2023-01-23T03:57:13.334Z,1.40
2023-01-23T04:00:03.603Z,0.68
2023-01-23T04:02:42.216Z,1.78
2023-01-23T04:05:14.002Z,1.86
2023-01-23T04:07:42.538Z,1.77
2023-01-23T04:10:13.232Z,1.60
2023-01-23T04:12:44.273Z,-0.37
2023-01-23T04:15:14.571Z,1.56
2023-01-23T04:17:43.105Z,1.43
2023-01-23T04:20:12.901Z,1.70
2023-01-23T04:22:43.429Z,1.61
2023-01-23T04:25:12.106Z,1.60
2023-01-23T04:27:41.231Z,1.65
2023-01-23T04:30:14.863Z,1.67
2023-01-23T04:32:43.459Z,1.63
2023-01-23T04:35:11.994Z,1.72
2023-01-23T04:37:42.854Z,1.61
2023-01-23T04:40:13.255Z,1.69
2023-01-23T04:42:53.256Z,1.78
2023-01-23T04:45:46.866Z,1.74
2023-01-23T04:48:25.349Z,1.62
2023-01-23T04:50:54.923Z,1.09
2023-01-23T04:53:23.687Z,1.69
2023-01-23T04:55:59.376Z,1.18
2023-01-23T04:58:30.753Z,1.65
2023-01-23T05:01:09.184Z,1.65
2023-01-23T05:03:39.282Z,1.66
2023-01-23T05:06:08.647Z,1.69
2023-01-23T05:08:37.191Z,1.66
2023-01-23T05:11:15.879Z,1.72
2023-01-23T05:13:45.321Z,1.69
2023-01-23T05:16:19.298Z,1.43
2023-01-23T05:19:08.398Z,1.15
2023-01-23T05:21:38.056Z,1.19
2023-01-23T05:24:10.590Z,1.59
2023-01-23T05:26:39.616Z,1.60
2023-01-23T05:29:08.669Z,1.68
2023-01-23T05:31:44.479Z,1.68
2023-01-23T05:34:52.648Z,1.79
2023-01-23T05:38:01.877Z,1.68
2023-01-23T05:40:36.271Z,1.56
2023-01-23T05:43:33.671Z,1.54
2023-01-23T05:46:21.069Z,1.60
2023-01-23T05:48:54.878Z,1.65
2023-01-23T05:51:31.396Z,1.55
2023-01-23T05:54:02.553Z,1.15
2023-01-23T05:56:31.727Z,1.14
2023-01-23T05:59:18.828Z,1.69
2023-01-23T06:02:09.905Z,0.92
2023-01-23T06:04:52.177Z,1.41
2023-01-23T06:07:30.088Z,1.62
2023-01-23T06:09:59.771Z,1.54
2023-01-23T06:12:28.545Z,1.62
2023-01-23T06:14:57.185Z,1.56
2023-01-23T06:17:29.350Z,1.54
2023-01-23T06:19:59.540Z,1.63
2023-01-23T06:22:30.089Z,1.65
2023-01-23T06:25:06.019Z,1.54
2023-01-23T06:27:34.543Z,1.63
2023-01-23T06:30:08.349Z,1.55
2023-01-23T06:32:42.679Z,1.67
2023-01-23T06:35:13.804Z,1.66
2023-01-23T06:37:44.383Z,1.64
2023-01-23T06:40:17.428Z,1.65
2023-01-23T06:43:05.304Z,1.65
2023-01-23T06:45:33.951Z,1.61
2023-01-23T06:48:06.486Z,1.64
2023-01-23T06:50:38.839Z,1.02
2023-01-23T06:53:07.735Z,1.66
2023-01-23T06:55:39.111Z,1.54
2023-01-23T06:58:07.666Z,1.71
2023-01-23T07:00:36.111Z,1.60
2023-01-23T07:03:06.900Z,0.98
2023-01-23T07:05:43.424Z,1.69
2023-01-23T07:08:13.857Z,1.57
2023-01-23T07:10:43.148Z,1.54
2023-01-23T07:13:13.391Z,0.46
2023-01-23T07:15:43.779Z,1.51
2023-01-23T07:18:12.575Z,1.49
2023-01-23T07:20:45.615Z,1.50
2023-01-23T07:23:14.745Z,1.53
2023-01-23T07:25:44.433Z,0.85
2023-01-23T07:28:13.113Z,1.58
2023-01-23T07:30:42.014Z,1.51
2023-01-23T07:33:10.424Z,1.58
2023-01-23T07:35:43.129Z,1.42
2023-01-23T07:38:11.941Z,1.67
2023-01-23T07:40:42.934Z,1.65
2023-01-23T07:43:12.133Z,1.60
2023-01-23T07:45:40.565Z,1.63
2023-01-23T07:48:09.695Z,1.63
2023-01-23T07:50:38.961Z,1.79
2023-01-23T07:53:08.936Z,1.80
2023-01-23T07:55:42.437Z,1.78
2023-01-23T07:58:11.130Z,1.97
2023-01-23T08:00:41.860Z,1.90
2023-01-23T08:03:10.625Z,1.88
2023-01-23T08:05:38.994Z,2.04
2023-01-23T08:08:13.402Z,2.08
2023-01-23T08:10:44.943Z,2.18
2023-01-23T08:13:13.384Z,1.38
2023-01-23T08:15:41.748Z,1.82
2023-01-23T08:18:10.276Z,2.04
2023-01-23T08:20:38.616Z,2.05
2023-01-23T08:23:08.556Z,1.94
2023-01-23T08:25:39.471Z,1.84
2023-01-23T08:28:08.003Z,1.92
2023-01-23T08:30:36.375Z,2.13
2023-01-23T08:33:05.931Z,2.08
2023-01-23T08:35:34.297Z,1.96
2023-01-23T08:38:03.745Z,2.08
2023-01-23T08:40:33.537Z,2.09
2023-01-23T08:43:01.943Z,2.26
2023-01-23T08:45:31.518Z,2.16
2023-01-23T08:48:00.110Z,2.16
2023-01-23T08:50:28.484Z,2.32
2023-01-23T08:52:56.922Z,2.44
2023-01-23T08:55:25.402Z,2.59
2023-01-23T08:57:55.248Z,2.65
2023-01-23T09:00:24.262Z,2.55
2023-01-23T09:02:52.724Z,2.44
2023-01-23T09:05:21.252Z,2.64
2023-01-23T09:07:49.697Z,2.70
2023-01-23T09:10:18.852Z,2.56
2023-01-23T09:12:47.494Z,2.49
2023-01-23T09:15:17.556Z,2.55
2023-01-23T09:17:46.027Z,2.92
2023-01-23T09:20:15.504Z,2.97
2023-01-23T09:22:44.027Z,3.16
2023-01-23T09:25:12.876Z,2.99
2023-01-23T09:27:43.222Z,2.69
2023-01-23T09:30:13.493Z,2.46
2023-01-23T09:32:43.326Z,2.65
2023-01-23T09:35:11.946Z,2.85
2023-01-23T09:37:58.959Z,2.69
2023-01-23T09:40:31.728Z,2.83
2023-01-23T09:43:06.547Z,2.97
2023-01-23T09:45:35.844Z,2.88
2023-01-23T09:48:20.678Z,2.88
2023-01-23T09:50:57.724Z,3.11
2023-01-23T09:53:36.565Z,3.19
2023-01-23T09:56:20.845Z,3.10
2023-01-23T09:59:03.245Z,3.24
2023-01-23T10:01:33.473Z,3.18
2023-01-23T10:04:04.718Z,3.23
2023-01-23T10:06:55.258Z,3.27
2023-01-23T10:09:53.081Z,3.27
2023-01-23T10:12:39.094Z,3.04
2023-01-23T10:15:27.529Z,3.32
2023-01-23T10:18:14.369Z,3.49
2023-01-23T10:21:10.519Z,3.40
2023-01-23T10:23:54.174Z,3.16
2023-01-23T10:26:27.564Z,2.84
2023-01-23T10:29:04.501Z,3.04
2023-01-23T10:31:45.245Z,3.41
2023-01-23T10:34:25.905Z,3.17
2023-01-23T10:37:17.953Z,2.67
2023-01-23T10:39:55.623Z,2.83
2023-01-23T10:42:27.667Z,2.71
2023-01-23T10:44:56.072Z,2.50
2023-01-23T10:47:33.637Z,3.00
2023-01-23T10:50:03.287Z,3.30
2023-01-23T10:52:37.452Z,3.29
2023-01-23T10:55:08.144Z,2.99
2023-01-23T10:57:49.239Z,2.85
2023-01-23T11:00:28.730Z,2.98
2023-01-23T11:02:57.314Z,2.82
2023-01-23T11:05:52.452Z,3.06
2023-01-23T11:08:28.489Z,2.95
2023-01-23T11:11:23.002Z,3.31
2023-01-23T11:14:06.789Z,2.67
2023-01-23T11:16:36.453Z,2.81
2023-01-23T11:19:19.222Z,2.98
2023-01-23T11:21:57.739Z,2.99
2023-01-23T11:24:41.956Z,2.93
2023-01-23T11:27:24.348Z,2.94
2023-01-23T11:30:37.374Z,2.98
2023-01-23T11:33:22.257Z,3.14
2023-01-23T11:36:03.597Z,3.36
2023-01-23T11:38:51.344Z,2.85
2023-01-23T11:41:33.773Z,3.11
2023-01-23T11:44:12.943Z,3.00
2023-01-23T11:47:24.499Z,3.34
2023-01-23T11:50:18.969Z,3.14
2023-01-23T11:52:57.538Z,3.13
2023-01-23T11:56:07.766Z,2.74
2023-01-23T11:59:10.386Z,2.78
2023-01-23T12:02:02.576Z,2.23
2023-01-23T12:05:06.393Z,2.64
2023-01-23T12:07:46.669Z,2.24
2023-01-23T12:10:27.429Z,2.39
2023-01-23T12:13:17.185Z,2.23
2023-01-23T12:16:04.967Z,1.86
2023-01-23T12:18:47.923Z,2.14
2023-01-23T12:21:21.382Z,2.08
2023-01-23T12:24:09.298Z,2.17
2023-01-23T12:26:50.613Z,2.26
2023-01-23T12:30:17.624Z,2.22
2023-01-23T12:33:04.726Z,2.27
2023-01-23T12:35:49.322Z,2.24
2023-01-23T12:38:32.518Z,2.40
2023-01-23T12:41:15.491Z,2.34
2023-01-23T12:43:54.199Z,2.25
2023-01-23T12:46:30.071Z,2.49
2023-01-23T12:49:19.548Z,2.54
2023-01-23T12:51:58.065Z,2.67
2023-01-23T12:54:38.523Z,2.69
2023-01-23T12:57:10.596Z,2.86
2023-01-23T12:59:59.136Z,2.80
2023-01-23T13:02:41.533Z,2.90
2023-01-23T13:05:22.279Z,2.52
2023-01-23T13:07:59.246Z,2.63
2023-01-23T13:11:00.561Z,2.64
2023-01-23T13:13:29.547Z,2.69
2023-01-23T13:16:12.382Z,2.47
2023-01-23T13:18:59.024Z,2.74
2023-01-23T13:21:46.539Z,2.69
2023-01-23T13:25:03.562Z,2.46
2023-01-23T13:27:47.422Z,2.54
2023-01-23T13:30:41.898Z,2.49
2023-01-23T13:33:58.681Z,2.32
2023-01-23T13:36:39.917Z,2.17
2023-01-23T13:39:30.687Z,2.42
2023-01-23T13:42:45.797Z,2.22
2023-01-23T13:45:29.896Z,2.38
2023-01-23T14:20:47.458Z,2.32
2023-01-23T14:23:29.994Z,2.17
2023-01-23T14:26:00.147Z,2.31
2023-01-23T14:28:28.690Z,2.21
2023-01-23T14:31:04.005Z,2.29
2023-01-23T14:33:42.587Z,2.13
2023-01-23T14:36:19.217Z,2.41
2023-01-23T14:38:51.167Z,2.55
2023-01-23T14:41:31.109Z,2.26
2023-01-23T14:44:01.928Z,2.37
2023-01-23T14:46:40.141Z,2.26
2023-01-23T14:49:11.315Z,2.43
2023-01-23T14:51:39.839Z,2.39
2023-01-23T14:54:23.019Z,2.12
2023-01-23T14:56:56.384Z,2.17
2023-01-23T14:59:31.254Z,2.14
2023-01-23T15:02:10.243Z,1.95
2023-01-23T15:04:44.834Z,2.13
2023-01-23T15:07:18.760Z,2.15
2023-01-23T15:09:47.427Z,2.14
2023-01-23T15:12:19.828Z,2.12
2023-01-23T15:14:55.459Z,2.17
2023-01-23T15:17:24.291Z,2.12
2023-01-23T15:19:56.012Z,1.69
2023-01-23T15:22:29.403Z,2.01
2023-01-23T15:24:58.274Z,2.18
2023-01-23T15:27:33.865Z,2.12
2023-01-23T15:30:37.874Z,1.71
2023-01-23T15:33:26.267Z,2.12
2023-01-23T15:36:07.094Z,2.11
2023-01-23T15:38:37.210Z,1.94
2023-01-23T15:41:11.304Z,2.07
2023-01-23T15:43:41.225Z,2.10
2023-01-23T15:46:11.925Z,2.09
2023-01-23T15:48:40.536Z,1.81
2023-01-23T15:51:11.958Z,2.14
2023-01-23T15:53:40.573Z,2.20
2023-01-23T15:56:26.721Z,1.65
2023-01-23T15:58:57.004Z,1.57
2023-01-23T16:01:25.989Z,2.11
2023-01-23T16:03:55.030Z,2.18
2023-01-23T16:06:26.347Z,2.17
2023-01-23T16:09:05.214Z,2.13
2023-01-23T16:11:38.271Z,2.08
2023-01-23T16:14:15.625Z,2.04
2023-01-23T16:16:44.721Z,2.07
2023-01-23T16:19:13.589Z,2.06
2023-01-23T16:21:49.936Z,1.88
2023-01-23T16:24:25.738Z,1.88
2023-01-23T16:26:56.501Z,2.10
2023-01-23T16:29:32.159Z,2.08
2023-01-23T16:32:03.643Z,1.56
2023-01-23T16:34:32.501Z,2.07
2023-01-23T16:37:02.885Z,2.07
2023-01-23T16:39:34.546Z,2.06
2023-01-23T16:42:05.081Z,1.75
2023-01-23T16:44:35.321Z,2.01
2023-01-23T16:47:03.849Z,1.75
2023-01-23T16:49:35.960Z,1.90
2023-01-23T16:52:10.814Z,1.62
2023-01-23T16:54:39.660Z,1.95
2023-01-23T16:57:12.467Z,1.98
2023-01-23T16:59:43.973Z,1.98
2023-01-23T17:02:22.643Z,2.00
2023-01-23T17:04:51.578Z,1.15
2023-01-23T17:07:20.693Z,1.99
2023-01-23T17:09:51.804Z,1.97
2023-01-23T17:12:27.571Z,1.80
2023-01-23T17:14:58.411Z,2.01
2023-01-23T17:17:33.191Z,1.25
2023-01-23T17:20:05.430Z,1.83
2023-01-23T17:22:41.021Z,0.80
2023-01-23T17:25:15.850Z,2.04
2023-01-23T17:27:46.622Z,1.99
2023-01-23T17:30:23.723Z,2.01
2023-01-23T17:32:56.487Z,1.90
2023-01-23T17:35:29.821Z,1.88
2023-01-23T17:37:58.646Z,1.90
2023-01-23T17:40:28.355Z,1.90
2023-01-23T17:42:56.982Z,1.93
2023-01-23T17:45:29.102Z,1.64
2023-01-23T17:47:57.877Z,0.82
2023-01-23T17:50:28.044Z,1.92
2023-01-23T17:52:56.764Z,1.91
2023-01-23T17:55:31.964Z,0.89
2023-01-23T17:58:00.890Z,1.89
2023-01-23T18:00:32.441Z,1.89
2023-01-23T18:03:02.561Z,1.85
2023-01-23T18:05:32.357Z,0.07
2023-01-23T18:08:01.176Z,1.85
2023-01-23T18:10:30.209Z,1.84
2023-01-23T18:13:17.786Z,1.71
2023-01-23T18:16:02.270Z,0.98
2023-01-23T18:18:33.642Z,1.87
2023-01-23T18:21:21.966Z,1.84
2023-01-23T18:23:53.727Z,1.63
2023-01-23T18:26:46.543Z,0.66
2023-01-23T18:29:30.937Z,1.31
2023-01-23T18:32:52.263Z,1.81
2023-01-23T18:35:37.980Z,1.72
2023-01-23T18:38:19.899Z,1.76
2023-01-23T18:41:09.344Z,1.78
2023-01-23T18:43:40.968Z,1.79
2023-01-23T18:46:16.478Z,1.78
2023-01-23T18:48:49.572Z,1.61
2023-01-23T18:51:34.003Z,1.83
2023-01-23T18:54:20.182Z,1.85
2023-01-23T18:57:02.959Z,1.68
2023-01-23T18:59:42.574Z,1.83
2023-01-23T19:02:27.204Z,1.41
2023-01-23T19:05:23.995Z,1.77
2023-01-23T19:07:53.427Z,1.79
2023-01-23T19:10:25.431Z,1.83
2023-01-23T19:13:09.274Z,1.28
2023-01-23T19:15:49.767Z,1.09
2023-01-23T19:18:47.065Z,1.47
2023-01-23T19:21:23.553Z,1.82
2023-01-23T19:24:01.609Z,0.71
2023-01-23T19:26:34.072Z,0.75
2023-01-23T19:29:20.589Z,1.73
2023-01-23T19:32:07.257Z,1.79
2023-01-23T19:34:36.605Z,1.83
2023-01-23T19:37:08.655Z,1.57
2023-01-23T19:39:37.758Z,1.75
2023-01-23T19:42:06.695Z,1.71
2023-01-23T19:44:35.750Z,1.72
2023-01-23T19:47:06.951Z,1.67
2023-01-23T19:49:36.017Z,1.86
2023-01-23T19:52:06.356Z,1.79
2023-01-23T19:54:35.487Z,1.77
2023-01-23T19:57:04.578Z,1.79
2023-01-23T19:59:34.386Z,1.65
2023-01-23T20:02:03.222Z,1.87
2023-01-23T20:04:32.062Z,1.89
2023-01-23T20:07:00.609Z,1.93
2023-01-23T20:09:30.559Z,1.93
2023-01-23T20:11:59.378Z,1.95
2023-01-23T20:14:29.546Z,1.87
2023-01-23T20:16:58.463Z,1.86
2023-01-23T20:19:27.165Z,1.82
2023-01-23T20:21:56.161Z,1.82
2023-01-23T20:24:24.874Z,1.84
2023-01-23T20:26:55.875Z,1.87
2023-01-23T20:29:24.804Z,1.89
2023-01-23T20:31:55.107Z,1.92
2023-01-23T20:34:23.850Z,1.91
2023-01-23T20:36:52.534Z,1.80
2023-01-23T20:39:21.215Z,1.69
2023-01-23T20:41:49.644Z,1.75
2023-01-23T20:44:19.800Z,1.81
2023-01-23T20:46:48.269Z,1.85
2023-01-23T20:49:16.785Z,1.74
2023-01-23T20:51:45.308Z,1.36
2023-01-23T20:54:12.730Z,1.24
2023-01-23T20:56:41.815Z,1.84
2023-01-23T20:59:19.316Z,1.57
2023-01-23T21:02:08.237Z,1.77
2023-01-23T21:04:38.393Z,1.31
2023-01-23T21:07:06.989Z,1.69
2023-01-23T21:09:35.451Z,1.09
2023-01-23T21:12:04.161Z,1.52
2023-01-23T21:14:32.886Z,0.53
2023-01-23T21:17:05.305Z,1.70
2023-01-23T21:19:34.010Z,1.72
2023-01-23T21:22:02.529Z,1.49
2023-01-23T21:24:34.321Z,1.60
2023-01-23T21:27:03.479Z,1.39
2023-01-23T21:29:32.874Z,1.61
2023-01-23T21:32:05.407Z,1.66
2023-01-23T21:34:33.795Z,1.67
2023-01-23T21:37:03.331Z,1.62
2023-01-23T21:39:31.744Z,1.59
2023-01-23T21:42:00.117Z,1.37
2023-01-23T21:44:28.590Z,1.60
2023-01-23T21:46:57.090Z,1.43
2023-01-23T21:49:26.917Z,1.08
2023-01-23T21:51:55.664Z,1.69
2023-01-23T21:54:24.888Z,1.34
2023-01-23T21:56:53.364Z,1.58
2023-01-23T21:59:21.811Z,1.55
2023-01-23T22:01:49.514Z,1.15
2023-01-23T22:04:22.457Z,1.00
2023-01-23T22:06:56.128Z,1.36
2023-01-23T22:09:26.657Z,1.23
2023-01-23T22:11:55.687Z,1.56
2023-01-23T22:14:24.483Z,1.65
2023-01-23T22:16:52.983Z,0.52
2023-01-23T22:19:25.578Z,1.24
2023-01-23T22:21:57.179Z,1.62
2023-01-23T22:24:26.180Z,1.61
2023-01-23T22:26:54.729Z,1.64
2023-01-23T22:29:23.816Z,1.48
2023-01-23T22:31:52.558Z,1.04
2023-01-23T22:34:21.146Z,1.55
2023-01-23T22:36:49.588Z,1.50
2023-01-23T22:39:20.185Z,1.46
2023-01-23T22:41:50.315Z,1.58
2023-01-23T22:44:18.936Z,1.62
2023-01-23T22:46:47.381Z,1.60
2023-01-23T22:49:15.865Z,1.66
2023-01-23T22:51:44.274Z,1.62
2023-01-23T22:54:12.736Z,1.59
2023-01-23T22:56:44.082Z,1.62
2023-01-23T22:59:12.573Z,1.51
2023-01-23T23:01:41.040Z,1.28
2023-01-23T23:04:13.604Z,1.55
2023-01-23T23:06:42.062Z,1.57
2023-01-23T23:09:10.827Z,1.55
2023-01-23T23:11:41.877Z,1.32
2023-01-23T23:14:11.627Z,1.32
2023-01-23T23:16:40.972Z,1.54
2023-01-23T23:19:11.139Z,1.51
2023-01-23T23:21:40.083Z,1.54
2023-01-23T23:24:13.016Z,1.54
2023-01-23T23:26:42.988Z,1.56
2023-01-23T23:29:11.422Z,1.21
2023-01-23T23:31:39.982Z,0.94
2023-01-23T23:34:09.004Z,1.51
2023-01-23T23:36:41.831Z,1.38
2023-01-23T23:39:10.369Z,1.48
2023-01-23T23:41:38.837Z,1.24
2023-01-23T23:44:09.020Z,1.55
2023-01-23T23:46:37.495Z,1.39
2023-01-23T23:49:06.060Z,1.55
2023-01-23T23:51:37.227Z,0.63
2023-01-23T23:54:06.003Z,1.50
2023-01-23T23:56:34.362Z,1.26
2023-01-23T23:59:02.918Z,1.00
